sensor_id;sensor_type;location;lat;lon;timestamp;P1;durP1;ratioP1;P2;durP2;ratioP2
21152;SDS011;10734;44.792;20.482;2023-12-20T00:01:55;49.25;;;27.17;;
21152;SDS011;10734;44.792;20.482;2023-12-20T00:04:22;45.33;;;24.90;;
21152;SDS011;10734;44.792;20.482;2023-12-20T00:06:49;48.28;;;26.38;;
21152;SDS011;10734;44.792;20.482;2023-12-20T00:09:16;52.50;;;28.63;;
21152;SDS011;10734;44.792;20.482;2023-12-20T00:11:43;43.92;;;24.33;;
21152;SDS011;10734;44.792;20.482;2023-12-20T00:14:09;44.22;;;24.17;;
21152;SDS011;10734;44.792;20.482;2023-12-20T00:16:36;43.28;;;25.15;;
21152;SDS011;10734;44.792;20.482;2023-12-20T00:19:03;46.40;;;23.73;;
21152;SDS011;10734;44.792;20.482;2023-12-20T00:21:29;39.15;;;22.40;;
21152;SDS011;10734;44.792;20.482;2023-12-20T00:23:56;39.50;;;21.30;;
21152;SDS011;10734;44.792;20.482;2023-12-20T00:26:23;40.30;;;22.75;;
21152;SDS011;10734;44.792;20.482;2023-12-20T00:28:49;41.00;;;23.42;;
21152;SDS011;10734;44.792;20.482;2023-12-20T00:31:16;40.72;;;23.08;;
21152;SDS011;10734;44.792;20.482;2023-12-20T00:33:43;40.85;;;22.77;;
21152;SDS011;10734;44.792;20.482;2023-12-20T00:36:10;48.92;;;23.90;;
21152;SDS011;10734;44.792;20.482;2023-12-20T00:38:37;44.17;;;24.13;;
21152;SDS011;10734;44.792;20.482;2023-12-20T00:41:03;37.85;;;20.58;;
21152;SDS011;10734;44.792;20.482;2023-12-20T00:43:30;40.97;;;21.15;;
21152;SDS011;10734;44.792;20.482;2023-12-20T00:45:57;43.83;;;21.92;;
21152;SDS011;10734;44.792;20.482;2023-12-20T00:48:24;44.70;;;20.95;;
21152;SDS011;10734;44.792;20.482;2023-12-20T00:50:50;45.95;;;20.63;;
21152;SDS011;10734;44.792;20.482;2023-12-20T00:53:17;46.95;;;23.00;;
21152;SDS011;10734;44.792;20.482;2023-12-20T00:55:44;43.10;;;22.92;;
21152;SDS011;10734;44.792;20.482;2023-12-20T00:58:11;44.90;;;22.55;;
21152;SDS011;10734;44.792;20.482;2023-12-20T01:00:38;45.10;;;22.58;;
21152;SDS011;10734;44.792;20.482;2023-12-20T01:03:08;47.30;;;21.92;;
21152;SDS011;10734;44.792;20.482;2023-12-20T01:05:34;41.33;;;21.52;;
21152;SDS011;10734;44.792;20.482;2023-12-20T01:08:01;41.03;;;19.17;;
21152;SDS011;10734;44.792;20.482;2023-12-20T01:10:29;38.70;;;19.23;;
21152;SDS011;10734;44.792;20.482;2023-12-20T01:12:56;32.28;;;17.70;;
21152;SDS011;10734;44.792;20.482;2023-12-20T01:15:23;34.25;;;16.42;;
21152;SDS011;10734;44.792;20.482;2023-12-20T01:17:49;25.38;;;15.52;;
21152;SDS011;10734;44.792;20.482;2023-12-20T01:20:16;27.13;;;14.65;;
21152;SDS011;10734;44.792;20.482;2023-12-20T01:22:43;28.98;;;15.07;;
21152;SDS011;10734;44.792;20.482;2023-12-20T01:25:12;25.10;;;15.15;;
21152;SDS011;10734;44.792;20.482;2023-12-20T01:27:39;30.25;;;15.60;;
21152;SDS011;10734;44.792;20.482;2023-12-20T01:30:05;24.42;;;13.52;;
21152;SDS011;10734;44.792;20.482;2023-12-20T01:32:32;25.60;;;13.88;;
21152;SDS011;10734;44.792;20.482;2023-12-20T01:34:59;27.52;;;15.32;;
21152;SDS011;10734;44.792;20.482;2023-12-20T01:37:28;29.00;;;16.08;;
21152;SDS011;10734;44.792;20.482;2023-12-20T01:39:56;26.25;;;15.82;;
21152;SDS011;10734;44.792;20.482;2023-12-20T01:42:22;38.03;;;20.27;;
21152;SDS011;10734;44.792;20.482;2023-12-20T01:44:49;42.05;;;21.80;;
21152;SDS011;10734;44.792;20.482;2023-12-20T01:47:16;44.80;;;24.20;;
21152;SDS011;10734;44.792;20.482;2023-12-20T01:49:43;52.63;;;28.85;;
21152;SDS011;10734;44.792;20.482;2023-12-20T01:52:10;53.72;;;30.23;;
21152;SDS011;10734;44.792;20.482;2023-12-20T01:54:38;61.80;;;32.35;;
21152;SDS011;10734;44.792;20.482;2023-12-20T01:57:06;55.95;;;30.27;;
21152;SDS011;10734;44.792;20.482;2023-12-20T01:59:34;55.78;;;30.80;;
21152;SDS011;10734;44.792;20.482;2023-12-20T02:02:02;61.20;;;33.03;;
21152;SDS011;10734;44.792;20.482;2023-12-20T02:04:29;62.45;;;35.00;;
21152;SDS011;10734;44.792;20.482;2023-12-20T02:06:56;70.03;;;35.75;;
21152;SDS011;10734;44.792;20.482;2023-12-20T02:09:24;72.70;;;38.08;;
21152;SDS011;10734;44.792;20.482;2023-12-20T02:11:50;71.82;;;40.00;;
21152;SDS011;10734;44.792;20.482;2023-12-20T02:14:17;79.45;;;42.17;;
21152;SDS011;10734;44.792;20.482;2023-12-20T02:16:44;75.82;;;41.97;;
21152;SDS011;10734;44.792;20.482;2023-12-20T02:19:13;87.95;;;46.58;;
21152;SDS011;10734;44.792;20.482;2023-12-20T02:21:40;101.88;;;51.85;;
21152;SDS011;10734;44.792;20.482;2023-12-20T02:24:07;97.22;;;49.28;;
21152;SDS011;10734;44.792;20.482;2023-12-20T02:26:33;98.70;;;52.40;;
21152;SDS011;10734;44.792;20.482;2023-12-20T02:29:00;106.75;;;51.95;;
21152;SDS011;10734;44.792;20.482;2023-12-20T02:31:27;105.43;;;55.22;;
21152;SDS011;10734;44.792;20.482;2023-12-20T02:33:53;101.55;;;52.58;;
21152;SDS011;10734;44.792;20.482;2023-12-20T02:36:20;120.45;;;64.03;;
21152;SDS011;10734;44.792;20.482;2023-12-20T02:38:47;127.40;;;65.80;;
21152;SDS011;10734;44.792;20.482;2023-12-20T02:41:14;125.85;;;66.32;;
21152;SDS011;10734;44.792;20.482;2023-12-20T02:43:43;136.82;;;70.93;;
21152;SDS011;10734;44.792;20.482;2023-12-20T02:46:10;139.68;;;75.32;;
21152;SDS011;10734;44.792;20.482;2023-12-20T02:48:37;148.00;;;75.20;;
21152;SDS011;10734;44.792;20.482;2023-12-20T02:51:04;143.50;;;73.70;;
21152;SDS011;10734;44.792;20.482;2023-12-20T02:53:30;137.80;;;68.35;;
21152;SDS011;10734;44.792;20.482;2023-12-20T02:55:57;149.45;;;79.13;;
21152;SDS011;10734;44.792;20.482;2023-12-20T02:58:24;156.65;;;78.15;;
21152;SDS011;10734;44.792;20.482;2023-12-20T03:00:51;145.10;;;75.93;;
21152;SDS011;10734;44.792;20.482;2023-12-20T03:03:18;158.30;;;80.95;;
21152;SDS011;10734;44.792;20.482;2023-12-20T03:05:45;146.73;;;76.72;;
21152;SDS011;10734;44.792;20.482;2023-12-20T03:08:12;141.38;;;73.75;;
21152;SDS011;10734;44.792;20.482;2023-12-20T03:10:39;138.07;;;72.35;;
21152;SDS011;10734;44.792;20.482;2023-12-20T03:13:05;151.27;;;78.20;;
21152;SDS011;10734;44.792;20.482;2023-12-20T03:15:32;135.32;;;75.82;;
21152;SDS011;10734;44.792;20.482;2023-12-20T03:17:58;138.73;;;72.32;;
21152;SDS011;10734;44.792;20.482;2023-12-20T03:20:25;149.57;;;77.55;;
21152;SDS011;10734;44.792;20.482;2023-12-20T03:22:52;129.13;;;69.15;;
21152;SDS011;10734;44.792;20.482;2023-12-20T03:25:19;133.45;;;72.20;;
21152;SDS011;10734;44.792;20.482;2023-12-20T03:27:45;141.70;;;72.72;;
21152;SDS011;10734;44.792;20.482;2023-12-20T03:30:12;130.85;;;72.68;;
21152;SDS011;10734;44.792;20.482;2023-12-20T03:32:39;153.63;;;79.28;;
21152;SDS011;10734;44.792;20.482;2023-12-20T03:35:06;146.45;;;75.68;;
21152;SDS011;10734;44.792;20.482;2023-12-20T03:37:33;144.18;;;74.45;;
21152;SDS011;10734;44.792;20.482;2023-12-20T03:40:00;144.18;;;74.15;;
21152;SDS011;10734;44.792;20.482;2023-12-20T03:42:27;135.50;;;75.70;;
21152;SDS011;10734;44.792;20.482;2023-12-20T03:44:53;132.82;;;72.60;;
21152;SDS011;10734;44.792;20.482;2023-12-20T03:47:20;141.60;;;75.13;;
21152;SDS011;10734;44.792;20.482;2023-12-20T03:49:46;134.70;;;72.20;;
21152;SDS011;10734;44.792;20.482;2023-12-20T03:52:13;143.77;;;78.57;;
21152;SDS011;10734;44.792;20.482;2023-12-20T03:54:40;145.65;;;76.68;;
21152;SDS011;10734;44.792;20.482;2023-12-20T03:57:08;147.50;;;76.05;;
21152;SDS011;10734;44.792;20.482;2023-12-20T03:59:35;140.35;;;75.47;;
21152;SDS011;10734;44.792;20.482;2023-12-20T04:02:03;151.57;;;76.38;;
21152;SDS011;10734;44.792;20.482;2023-12-20T04:04:29;147.65;;;76.43;;
21152;SDS011;10734;44.792;20.482;2023-12-20T04:06:56;148.90;;;74.72;;
21152;SDS011;10734;44.792;20.482;2023-12-20T04:09:23;142.25;;;71.78;;
21152;SDS011;10734;44.792;20.482;2023-12-20T04:11:50;149.15;;;75.07;;
21152;SDS011;10734;44.792;20.482;2023-12-20T04:14:16;142.02;;;74.93;;
21152;SDS011;10734;44.792;20.482;2023-12-20T04:16:43;148.27;;;74.40;;
21152;SDS011;10734;44.792;20.482;2023-12-20T04:19:13;136.40;;;70.20;;
21152;SDS011;10734;44.792;20.482;2023-12-20T04:21:40;143.27;;;75.22;;
21152;SDS011;10734;44.792;20.482;2023-12-20T04:24:06;129.85;;;67.65;;
21152;SDS011;10734;44.792;20.482;2023-12-20T04:26:33;135.57;;;68.55;;
21152;SDS011;10734;44.792;20.482;2023-12-20T04:28:59;136.75;;;67.38;;
21152;SDS011;10734;44.792;20.482;2023-12-20T04:31:26;134.00;;;69.75;;
21152;SDS011;10734;44.792;20.482;2023-12-20T04:33:53;116.50;;;62.33;;
21152;SDS011;10734;44.792;20.482;2023-12-20T04:36:20;133.18;;;70.00;;
21152;SDS011;10734;44.792;20.482;2023-12-20T04:38:46;158.00;;;82.25;;
21152;SDS011;10734;44.792;20.482;2023-12-20T04:41:13;144.30;;;76.53;;
21152;SDS011;10734;44.792;20.482;2023-12-20T04:43:42;161.43;;;80.57;;
21152;SDS011;10734;44.792;20.482;2023-12-20T04:46:09;142.90;;;76.65;;
21152;SDS011;10734;44.792;20.482;2023-12-20T04:48:36;151.75;;;76.03;;
21152;SDS011;10734;44.792;20.482;2023-12-20T04:51:03;141.45;;;74.43;;
21152;SDS011;10734;44.792;20.482;2023-12-20T04:53:29;149.68;;;76.00;;
21152;SDS011;10734;44.792;20.482;2023-12-20T04:55:56;137.38;;;75.10;;
21152;SDS011;10734;44.792;20.482;2023-12-20T04:58:22;148.38;;;77.32;;
21152;SDS011;10734;44.792;20.482;2023-12-20T05:00:49;144.55;;;72.40;;
21152;SDS011;10734;44.792;20.482;2023-12-20T05:03:16;131.95;;;67.72;;
21152;SDS011;10734;44.792;20.482;2023-12-20T05:05:42;126.38;;;65.35;;
21152;SDS011;10734;44.792;20.482;2023-12-20T05:08:09;145.60;;;73.20;;
21152;SDS011;10734;44.792;20.482;2023-12-20T05:10:36;137.23;;;71.88;;
21152;SDS011;10734;44.792;20.482;2023-12-20T05:13:03;126.25;;;68.28;;
21152;SDS011;10734;44.792;20.482;2023-12-20T05:15:29;143.35;;;74.57;;
21152;SDS011;10734;44.792;20.482;2023-12-20T05:17:56;137.45;;;71.95;;
21152;SDS011;10734;44.792;20.482;2023-12-20T05:20:23;142.38;;;73.93;;
21152;SDS011;10734;44.792;20.482;2023-12-20T05:22:50;150.82;;;76.07;;
21152;SDS011;10734;44.792;20.482;2023-12-20T05:25:17;143.43;;;70.13;;
21152;SDS011;10734;44.792;20.482;2023-12-20T05:27:43;142.60;;;72.60;;
21152;SDS011;10734;44.792;20.482;2023-12-20T05:30:11;135.50;;;70.43;;
21152;SDS011;10734;44.792;20.482;2023-12-20T05:32:38;151.45;;;76.63;;
21152;SDS011;10734;44.792;20.482;2023-12-20T05:35:04;142.27;;;74.13;;
21152;SDS011;10734;44.792;20.482;2023-12-20T05:37:31;147.25;;;74.72;;
21152;SDS011;10734;44.792;20.482;2023-12-20T05:39:58;141.23;;;73.75;;
21152;SDS011;10734;44.792;20.482;2023-12-20T05:42:24;141.90;;;73.80;;
21152;SDS011;10734;44.792;20.482;2023-12-20T05:44:51;146.90;;;73.00;;
21152;SDS011;10734;44.792;20.482;2023-12-20T05:47:20;150.13;;;78.35;;
21152;SDS011;10734;44.792;20.482;2023-12-20T05:49:47;147.93;;;74.25;;
21152;SDS011;10734;44.792;20.482;2023-12-20T05:52:14;136.55;;;70.30;;
21152;SDS011;10734;44.792;20.482;2023-12-20T05:54:41;139.07;;;70.50;;
21152;SDS011;10734;44.792;20.482;2023-12-20T05:57:07;130.70;;;68.80;;
21152;SDS011;10734;44.792;20.482;2023-12-20T05:59:34;146.05;;;75.00;;
21152;SDS011;10734;44.792;20.482;2023-12-20T06:02:00;150.70;;;76.75;;
21152;SDS011;10734;44.792;20.482;2023-12-20T06:04:27;142.63;;;71.60;;
21152;SDS011;10734;44.792;20.482;2023-12-20T06:06:54;126.40;;;65.57;;
21152;SDS011;10734;44.792;20.482;2023-12-20T06:09:21;139.95;;;72.55;;
21152;SDS011;10734;44.792;20.482;2023-12-20T06:11:47;122.07;;;62.13;;
21152;SDS011;10734;44.792;20.482;2023-12-20T06:14:14;111.13;;;58.88;;
21152;SDS011;10734;44.792;20.482;2023-12-20T06:16:40;111.05;;;57.70;;
21152;SDS011;10734;44.792;20.482;2023-12-20T06:19:07;127.47;;;61.38;;
21152;SDS011;10734;44.792;20.482;2023-12-20T06:21:34;117.28;;;63.13;;
21152;SDS011;10734;44.792;20.482;2023-12-20T06:24:00;120.97;;;59.58;;
21152;SDS011;10734;44.792;20.482;2023-12-20T06:26:27;139.10;;;68.35;;
21152;SDS011;10734;44.792;20.482;2023-12-20T06:28:53;123.75;;;59.03;;
21152;SDS011;10734;44.792;20.482;2023-12-20T06:31:20;133.88;;;69.38;;
21152;SDS011;10734;44.792;20.482;2023-12-20T06:33:47;130.38;;;65.57;;
21152;SDS011;10734;44.792;20.482;2023-12-20T06:36:16;128.15;;;69.75;;
21152;SDS011;10734;44.792;20.482;2023-12-20T06:38:42;119.88;;;62.75;;
21152;SDS011;10734;44.792;20.482;2023-12-20T06:41:12;111.68;;;62.83;;
21152;SDS011;10734;44.792;20.482;2023-12-20T06:43:39;118.18;;;60.38;;
21152;SDS011;10734;44.792;20.482;2023-12-20T06:46:15;114.18;;;60.70;;
21152;SDS011;10734;44.792;20.482;2023-12-20T06:48:42;121.55;;;66.55;;
21152;SDS011;10734;44.792;20.482;2023-12-20T06:51:14;130.32;;;67.20;;
21152;SDS011;10734;44.792;20.482;2023-12-20T06:53:40;107.60;;;57.13;;
21152;SDS011;10734;44.792;20.482;2023-12-20T06:56:07;106.75;;;58.88;;
21152;SDS011;10734;44.792;20.482;2023-12-20T06:58:34;111.40;;;59.45;;
21152;SDS011;10734;44.792;20.482;2023-12-20T07:01:00;116.85;;;59.97;;
21152;SDS011;10734;44.792;20.482;2023-12-20T07:03:27;116.40;;;61.78;;
21152;SDS011;10734;44.792;20.482;2023-12-20T07:05:54;114.35;;;61.35;;
21152;SDS011;10734;44.792;20.482;2023-12-20T07:08:20;111.18;;;58.53;;
21152;SDS011;10734;44.792;20.482;2023-12-20T07:10:47;120.07;;;62.20;;
21152;SDS011;10734;44.792;20.482;2023-12-20T07:13:14;108.72;;;56.05;;
21152;SDS011;10734;44.792;20.482;2023-12-20T07:15:40;108.28;;;59.22;;
21152;SDS011;10734;44.792;20.482;2023-12-20T07:18:07;114.13;;;59.17;;
21152;SDS011;10734;44.792;20.482;2023-12-20T07:20:34;108.82;;;59.67;;
21152;SDS011;10734;44.792;20.482;2023-12-20T07:23:00;102.93;;;55.15;;
21152;SDS011;10734;44.792;20.482;2023-12-20T07:25:27;134.13;;;68.15;;
21152;SDS011;10734;44.792;20.482;2023-12-20T07:27:54;116.85;;;63.70;;
21152;SDS011;10734;44.792;20.482;2023-12-20T07:30:21;152.25;;;82.53;;
21152;SDS011;10734;44.792;20.482;2023-12-20T07:32:47;172.70;;;92.45;;
21152;SDS011;10734;44.792;20.482;2023-12-20T07:35:15;175.88;;;95.93;;
21152;SDS011;10734;44.792;20.482;2023-12-20T07:37:42;183.73;;;98.15;;
21152;SDS011;10734;44.792;20.482;2023-12-20T07:40:09;185.38;;;94.40;;
21152;SDS011;10734;44.792;20.482;2023-12-20T07:42:36;173.43;;;90.70;;
21152;SDS011;10734;44.792;20.482;2023-12-20T07:45:03;162.27;;;85.32;;
21152;SDS011;10734;44.792;20.482;2023-12-20T07:47:30;154.70;;;82.47;;
21152;SDS011;10734;44.792;20.482;2023-12-20T07:49:56;144.82;;;76.68;;
21152;SDS011;10734;44.792;20.482;2023-12-20T07:52:23;146.35;;;78.28;;
21152;SDS011;10734;44.792;20.482;2023-12-20T07:54:50;144.20;;;77.82;;
21152;SDS011;10734;44.792;20.482;2023-12-20T07:57:17;142.02;;;76.45;;
21152;SDS011;10734;44.792;20.482;2023-12-20T07:59:43;150.68;;;79.38;;
21152;SDS011;10734;44.792;20.482;2023-12-20T08:02:11;150.40;;;76.95;;
21152;SDS011;10734;44.792;20.482;2023-12-20T08:04:37;142.63;;;78.40;;
21152;SDS011;10734;44.792;20.482;2023-12-20T08:07:04;147.73;;;78.68;;
21152;SDS011;10734;44.792;20.482;2023-12-20T08:09:31;137.98;;;73.00;;
21152;SDS011;10734;44.792;20.482;2023-12-20T08:11:58;141.07;;;76.07;;
21152;SDS011;10734;44.792;20.482;2023-12-20T08:14:26;143.38;;;73.43;;
21152;SDS011;10734;44.792;20.482;2023-12-20T08:16:52;142.55;;;75.95;;
21152;SDS011;10734;44.792;20.482;2023-12-20T08:19:19;133.85;;;72.25;;
21152;SDS011;10734;44.792;20.482;2023-12-20T08:21:46;140.43;;;71.90;;
21152;SDS011;10734;44.792;20.482;2023-12-20T08:24:13;127.65;;;68.03;;
21152;SDS011;10734;44.792;20.482;2023-12-20T08:26:39;133.35;;;67.78;;
21152;SDS011;10734;44.792;20.482;2023-12-20T08:29:06;136.68;;;72.75;;
21152;SDS011;10734;44.792;20.482;2023-12-20T08:31:32;125.25;;;65.68;;
21152;SDS011;10734;44.792;20.482;2023-12-20T08:33:59;130.38;;;66.63;;
21152;SDS011;10734;44.792;20.482;2023-12-20T08:36:26;108.95;;;62.17;;
21152;SDS011;10734;44.792;20.482;2023-12-20T08:38:53;114.20;;;62.25;;
21152;SDS011;10734;44.792;20.482;2023-12-20T08:41:19;117.10;;;60.33;;
21152;SDS011;10734;44.792;20.482;2023-12-20T08:43:46;106.50;;;57.20;;
21152;SDS011;10734;44.792;20.482;2023-12-20T08:46:14;98.05;;;53.15;;
21152;SDS011;10734;44.792;20.482;2023-12-20T08:48:41;101.57;;;49.25;;
21152;SDS011;10734;44.792;20.482;2023-12-20T08:51:08;101.15;;;47.83;;
21152;SDS011;10734;44.792;20.482;2023-12-20T08:53:35;91.90;;;45.60;;
21152;SDS011;10734;44.792;20.482;2023-12-20T08:56:02;87.45;;;44.97;;
21152;SDS011;10734;44.792;20.482;2023-12-20T08:58:28;91.30;;;46.63;;
21152;SDS011;10734;44.792;20.482;2023-12-20T09:00:55;81.70;;;46.55;;
21152;SDS011;10734;44.792;20.482;2023-12-20T09:03:24;93.30;;;49.10;;
21152;SDS011;10734;44.792;20.482;2023-12-20T09:05:50;116.03;;;57.22;;
21152;SDS011;10734;44.792;20.482;2023-12-20T09:08:17;104.63;;;55.78;;
21152;SDS011;10734;44.792;20.482;2023-12-20T09:10:44;104.22;;;53.90;;
21152;SDS011;10734;44.792;20.482;2023-12-20T09:13:11;105.80;;;50.55;;
21152;SDS011;10734;44.792;20.482;2023-12-20T09:15:38;88.70;;;48.83;;
21152;SDS011;10734;44.792;20.482;2023-12-20T09:18:04;108.60;;;52.35;;
21152;SDS011;10734;44.792;20.482;2023-12-20T09:20:32;94.38;;;51.85;;
21152;SDS011;10734;44.792;20.482;2023-12-20T09:22:59;98.85;;;51.70;;
21152;SDS011;10734;44.792;20.482;2023-12-20T09:25:26;87.00;;;49.83;;
21152;SDS011;10734;44.792;20.482;2023-12-20T09:27:53;97.70;;;52.10;;
21152;SDS011;10734;44.792;20.482;2023-12-20T09:30:20;96.38;;;52.78;;
21152;SDS011;10734;44.792;20.482;2023-12-20T09:32:53;98.88;;;51.78;;
21152;SDS011;10734;44.792;20.482;2023-12-20T09:35:20;90.35;;;51.30;;
21152;SDS011;10734;44.792;20.482;2023-12-20T09:37:47;87.72;;;49.45;;
21152;SDS011;10734;44.792;20.482;2023-12-20T09:40:14;95.45;;;48.60;;
21152;SDS011;10734;44.792;20.482;2023-12-20T09:42:55;84.47;;;47.67;;
21152;SDS011;10734;44.792;20.482;2023-12-20T09:45:23;84.20;;;45.60;;
21152;SDS011;10734;44.792;20.482;2023-12-20T09:47:53;79.07;;;44.03;;
21152;SDS011;10734;44.792;20.482;2023-12-20T09:50:20;82.32;;;48.15;;
21152;SDS011;10734;44.792;20.482;2023-12-20T09:52:51;80.88;;;46.15;;
21152;SDS011;10734;44.792;20.482;2023-12-20T09:55:18;79.40;;;46.67;;
21152;SDS011;10734;44.792;20.482;2023-12-20T09:57:46;81.30;;;46.38;;
21152;SDS011;10734;44.792;20.482;2023-12-20T10:00:13;92.25;;;46.20;;
21152;SDS011;10734;44.792;20.482;2023-12-20T10:03:02;82.43;;;46.58;;
21152;SDS011;10734;44.792;20.482;2023-12-20T10:05:31;80.22;;;45.80;;
21152;SDS011;10734;44.792;20.482;2023-12-20T10:07:58;83.90;;;46.30;;
21152;SDS011;10734;44.792;20.482;2023-12-20T10:10:26;80.35;;;44.60;;
21152;SDS011;10734;44.792;20.482;2023-12-20T10:13:08;85.45;;;48.13;;
21152;SDS011;10734;44.792;20.482;2023-12-20T10:15:35;82.88;;;47.10;;
21152;SDS011;10734;44.792;20.482;2023-12-20T10:18:02;76.05;;;42.92;;
21152;SDS011;10734;44.792;20.482;2023-12-20T10:20:29;80.88;;;44.58;;
21152;SDS011;10734;44.792;20.482;2023-12-20T10:22:56;71.13;;;44.08;;
21152;SDS011;10734;44.792;20.482;2023-12-20T10:25:23;74.70;;;45.13;;
21152;SDS011;10734;44.792;20.482;2023-12-20T10:30:34;88.78;;;49.88;;
21152;SDS011;10734;44.792;20.482;2023-12-20T10:33:01;84.78;;;51.33;;
21152;SDS011;10734;44.792;20.482;2023-12-20T10:35:27;86.78;;;49.63;;
21152;SDS011;10734;44.792;20.482;2023-12-20T10:37:55;88.00;;;52.33;;
21152;SDS011;10734;44.792;20.482;2023-12-20T10:40:22;95.90;;;55.83;;
21152;SDS011;10734;44.792;20.482;2023-12-20T10:42:49;93.95;;;55.97;;
21152;SDS011;10734;44.792;20.482;2023-12-20T10:45:17;103.95;;;58.55;;
21152;SDS011;10734;44.792;20.482;2023-12-20T10:47:46;93.05;;;58.70;;
21152;SDS011;10734;44.792;20.482;2023-12-20T10:50:14;96.68;;;57.38;;
21152;SDS011;10734;44.792;20.482;2023-12-20T10:52:41;101.82;;;58.63;;
21152;SDS011;10734;44.792;20.482;2023-12-20T10:55:10;102.90;;;60.92;;
21152;SDS011;10734;44.792;20.482;2023-12-20T10:57:37;94.47;;;56.55;;
21152;SDS011;10734;44.792;20.482;2023-12-20T11:00:05;109.20;;;59.78;;
21152;SDS011;10734;44.792;20.482;2023-12-20T11:02:32;100.57;;;59.33;;
21152;SDS011;10734;44.792;20.482;2023-12-20T11:05:05;109.45;;;63.15;;
21152;SDS011;10734;44.792;20.482;2023-12-20T11:07:36;107.95;;;62.72;;
21152;SDS011;10734;44.792;20.482;2023-12-20T11:12:58;114.22;;;63.70;;
21152;SDS011;10734;44.792;20.482;2023-12-20T11:15:29;98.90;;;61.58;;
21152;SDS011;10734;44.792;20.482;2023-12-20T11:17:57;102.70;;;61.85;;
21152;SDS011;10734;44.792;20.482;2023-12-20T11:20:35;97.07;;;60.42;;
21152;SDS011;10734;44.792;20.482;2023-12-20T11:23:02;100.32;;;57.80;;
21152;SDS011;10734;44.792;20.482;2023-12-20T11:25:28;96.47;;;58.22;;
21152;SDS011;10734;44.792;20.482;2023-12-20T11:28:06;85.05;;;50.25;;
21152;SDS011;10734;44.792;20.482;2023-12-20T11:33:09;86.80;;;51.47;;
21152;SDS011;10734;44.792;20.482;2023-12-20T11:35:36;90.70;;;53.70;;
21152;SDS011;10734;44.792;20.482;2023-12-20T11:38:03;85.65;;;52.92;;
21152;SDS011;10734;44.792;20.482;2023-12-20T11:40:31;86.82;;;52.67;;
21152;SDS011;10734;44.792;20.482;2023-12-20T11:43:00;85.55;;;51.70;;
21152;SDS011;10734;44.792;20.482;2023-12-20T11:45:26;104.55;;;55.22;;
21152;SDS011;10734;44.792;20.482;2023-12-20T11:47:56;89.35;;;53.00;;
21152;SDS011;10734;44.792;20.482;2023-12-20T11:50:24;97.85;;;56.20;;
21152;SDS011;10734;44.792;20.482;2023-12-20T11:52:52;100.70;;;55.60;;
21152;SDS011;10734;44.792;20.482;2023-12-20T11:55:18;96.53;;;54.45;;
21152;SDS011;10734;44.792;20.482;2023-12-20T11:57:45;108.50;;;58.05;;
21152;SDS011;10734;44.792;20.482;2023-12-20T12:00:13;104.10;;;60.25;;
21152;SDS011;10734;44.792;20.482;2023-12-20T12:02:40;104.68;;;57.72;;
21152;SDS011;10734;44.792;20.482;2023-12-20T12:05:06;111.47;;;59.75;;
21152;SDS011;10734;44.792;20.482;2023-12-20T12:07:34;105.80;;;63.03;;
21152;SDS011;10734;44.792;20.482;2023-12-20T12:10:01;108.63;;;63.75;;
21152;SDS011;10734;44.792;20.482;2023-12-20T12:12:30;105.72;;;61.65;;
21152;SDS011;10734;44.792;20.482;2023-12-20T12:14:57;111.43;;;64.20;;
21152;SDS011;10734;44.792;20.482;2023-12-20T12:17:24;106.65;;;61.83;;
21152;SDS011;10734;44.792;20.482;2023-12-20T12:19:51;115.22;;;67.05;;
21152;SDS011;10734;44.792;20.482;2023-12-20T12:22:28;113.57;;;66.55;;
21152;SDS011;10734;44.792;20.482;2023-12-20T12:24:54;116.30;;;62.42;;
21152;SDS011;10734;44.792;20.482;2023-12-20T12:27:25;108.82;;;62.58;;
21152;SDS011;10734;44.792;20.482;2023-12-20T12:30:02;117.38;;;64.68;;
21152;SDS011;10734;44.792;20.482;2023-12-20T12:32:30;113.13;;;63.28;;
21152;SDS011;10734;44.792;20.482;2023-12-20T12:34:57;113.20;;;62.80;;
21152;SDS011;10734;44.792;20.482;2023-12-20T12:37:23;108.47;;;61.15;;
21152;SDS011;10734;44.792;20.482;2023-12-20T12:39:53;108.00;;;62.00;;
21152;SDS011;10734;44.792;20.482;2023-12-20T12:42:19;110.22;;;62.47;;
21152;SDS011;10734;44.792;20.482;2023-12-20T12:44:47;105.88;;;62.65;;
21152;SDS011;10734;44.792;20.482;2023-12-20T12:47:13;109.20;;;60.58;;
21152;SDS011;10734;44.792;20.482;2023-12-20T12:49:40;116.85;;;63.78;;
21152;SDS011;10734;44.792;20.482;2023-12-20T12:52:07;123.53;;;68.00;;
21152;SDS011;10734;44.792;20.482;2023-12-20T12:54:34;118.90;;;65.30;;
21152;SDS011;10734;44.792;20.482;2023-12-20T12:57:00;123.75;;;69.97;;
21152;SDS011;10734;44.792;20.482;2023-12-20T12:59:27;115.15;;;66.35;;
21152;SDS011;10734;44.792;20.482;2023-12-20T13:01:54;112.22;;;68.70;;
21152;SDS011;10734;44.792;20.482;2023-12-20T13:04:20;123.93;;;71.47;;
21152;SDS011;10734;44.792;20.482;2023-12-20T13:06:47;123.47;;;71.55;;
21152;SDS011;10734;44.792;20.482;2023-12-20T13:09:14;127.90;;;72.45;;
21152;SDS011;10734;44.792;20.482;2023-12-20T13:11:41;113.88;;;68.80;;
21152;SDS011;10734;44.792;20.482;2023-12-20T13:14:08;124.35;;;73.00;;
21152;SDS011;10734;44.792;20.482;2023-12-20T13:16:37;121.15;;;71.13;;
21152;SDS011;10734;44.792;20.482;2023-12-20T13:19:03;124.65;;;72.65;;
21152;SDS011;10734;44.792;20.482;2023-12-20T13:21:30;118.30;;;70.68;;
21152;SDS011;10734;44.792;20.482;2023-12-20T13:23:57;138.95;;;80.60;;
21152;SDS011;10734;44.792;20.482;2023-12-20T13:26:24;118.97;;;73.35;;
21152;SDS011;10734;44.792;20.482;2023-12-20T13:28:50;130.07;;;77.38;;
21152;SDS011;10734;44.792;20.482;2023-12-20T13:31:17;127.45;;;76.28;;
21152;SDS011;10734;44.792;20.482;2023-12-20T13:33:44;130.05;;;78.55;;
21152;SDS011;10734;44.792;20.482;2023-12-20T13:36:11;129.48;;;76.90;;
21152;SDS011;10734;44.792;20.482;2023-12-20T13:38:37;134.05;;;76.70;;
21152;SDS011;10734;44.792;20.482;2023-12-20T13:41:04;130.07;;;76.25;;
21152;SDS011;10734;44.792;20.482;2023-12-20T13:43:31;121.38;;;72.05;;
21152;SDS011;10734;44.792;20.482;2023-12-20T13:45:59;127.03;;;74.20;;
21152;SDS011;10734;44.792;20.482;2023-12-20T13:48:25;128.07;;;76.38;;
21152;SDS011;10734;44.792;20.482;2023-12-20T13:50:52;127.88;;;75.47;;
21152;SDS011;10734;44.792;20.482;2023-12-20T13:53:19;129.48;;;77.88;;
21152;SDS011;10734;44.792;20.482;2023-12-20T13:55:45;137.23;;;79.35;;
21152;SDS011;10734;44.792;20.482;2023-12-20T13:58:12;146.32;;;79.50;;
21152;SDS011;10734;44.792;20.482;2023-12-20T14:00:40;135.00;;;77.75;;
21152;SDS011;10734;44.792;20.482;2023-12-20T14:03:06;138.15;;;81.75;;
21152;SDS011;10734;44.792;20.482;2023-12-20T14:05:33;130.77;;;78.47;;
21152;SDS011;10734;44.792;20.482;2023-12-20T14:08:01;132.52;;;79.35;;
21152;SDS011;10734;44.792;20.482;2023-12-20T14:10:30;141.98;;;82.22;;